sensor_id;sensor_type;location;lat;lon;timestamp;pressure;altitude;pressure_sealevel;temperature;humidity
75585;BME280;64162;53.508;10.476;2022-12-20T00:01:15;101004.88;;;5.20;86.61
75585;BME280;64162;53.508;10.476;2022-12-20T00:03:42;100997.47;;;5.28;86.64
75585;BME280;64162;53.508;10.476;2022-12-20T00:06:12;100994.53;;;5.35;86.74
75585;BME280;64162;53.508;10.476;2022-12-20T00:08:40;100991.78;;;5.38;86.36
75585;BME280;64162;53.508;10.476;2022-12-20T00:11:08;100985.63;;;5.39;85.94
75585;BME280;64162;53.508;10.476;2022-12-20T00:13:35;100993.53;;;5.37;86.03
75585;BME280;64162;53.508;10.476;2022-12-20T00:16:21;100980.47;;;5.37;85.89
75585;BME280;64162;53.508;10.476;2022-12-20T00:18:55;100983.00;;;5.39;85.87
75585;BME280;64162;53.508;10.476;2022-12-20T00:21:22;100981.00;;;5.44;86.08
75585;BME280;64162;53.508;10.476;2022-12-20T00:23:50;100974.69;;;5.48;85.95
75585;BME280;64162;53.508;10.476;2022-12-20T00:26:20;100979.50;;;5.55;86.54
75585;BME280;64162;53.508;10.476;2022-12-20T00:28:47;100977.47;;;5.60;86.85
75585;BME280;64162;53.508;10.476;2022-12-20T00:31:17;100969.06;;;5.71;86.75
75585;BME280;64162;53.508;10.476;2022-12-20T00:33:46;100968.53;;;5.80;86.59
75585;BME280;64162;53.508;10.476;2022-12-20T00:36:13;100972.44;;;5.89;86.40
75585;BME280;64162;53.508;10.476;2022-12-20T00:38:43;100972.00;;;5.96;86.59
75585;BME280;64162;53.508;10.476;2022-12-20T00:41:12;100975.97;;;6.04;86.30
75585;BME280;64162;53.508;10.476;2022-12-20T00:43:39;100963.47;;;6.09;85.90
75585;BME280;64162;53.508;10.476;2022-12-20T00:46:09;100969.47;;;6.11;85.19
75585;BME280;64162;53.508;10.476;2022-12-20T00:48:36;100972.94;;;6.11;84.87
75585;BME280;64162;53.508;10.476;2022-12-20T00:51:06;100969.56;;;6.09;85.04
75585;BME280;64162;53.508;10.476;2022-12-20T00:53:34;100968.88;;;6.06;84.80
75585;BME280;64162;53.508;10.476;2022-12-20T00:56:02;100976.81;;;6.04;85.42
75585;BME280;64162;53.508;10.476;2022-12-20T00:58:31;100960.28;;;6.04;85.39
75585;BME280;64162;53.508;10.476;2022-12-20T01:00:58;100966.63;;;6.00;85.76
75585;BME280;64162;53.508;10.476;2022-12-20T01:03:26;100961.97;;;6.05;85.82
75585;BME280;64162;53.508;10.476;2022-12-20T01:05:56;100965.09;;;6.11;85.40
75585;BME280;64162;53.508;10.476;2022-12-20T01:08:24;100970.06;;;6.16;85.61
75585;BME280;64162;53.508;10.476;2022-12-20T01:11:05;100952.69;;;6.15;85.59
75585;BME280;64162;53.508;10.476;2022-12-20T01:13:34;100956.72;;;6.20;85.27
75585;BME280;64162;53.508;10.476;2022-12-20T01:16:17;100959.41;;;6.19;84.98
75585;BME280;64162;53.508;10.476;2022-12-20T01:18:44;100949.22;;;6.14;85.03
75585;BME280;64162;53.508;10.476;2022-12-20T01:21:13;100955.47;;;6.12;85.05
75585;BME280;64162;53.508;10.476;2022-12-20T01:23:40;100952.69;;;6.15;84.81
75585;BME280;64162;53.508;10.476;2022-12-20T01:26:14;100944.41;;;6.07;85.31
75585;BME280;64162;53.508;10.476;2022-12-20T01:28:43;100938.50;;;6.03;85.10
75585;BME280;64162;53.508;10.476;2022-12-20T01:31:15;100939.94;;;6.09;85.40
75585;BME280;64162;53.508;10.476;2022-12-20T01:33:42;100951.50;;;6.05;85.26
75585;BME280;64162;53.508;10.476;2022-12-20T01:36:11;100945.25;;;6.07;85.37
75585;BME280;64162;53.508;10.476;2022-12-20T01:38:39;100944.25;;;6.10;84.93
75585;BME280;64162;53.508;10.476;2022-12-20T01:41:07;100947.63;;;6.12;85.19
75585;BME280;64162;53.508;10.476;2022-12-20T01:46:11;100950.81;;;6.17;85.64
75585;BME280;64162;53.508;10.476;2022-12-20T01:48:39;100941.78;;;6.22;86.25
75585;BME280;64162;53.508;10.476;2022-12-20T01:51:07;100954.25;;;6.33;86.20
75585;BME280;64162;53.508;10.476;2022-12-20T01:53:34;100945.91;;;6.41;85.99
75585;BME280;64162;53.508;10.476;2022-12-20T01:56:03;100943.53;;;6.52;86.18
75585;BME280;64162;53.508;10.476;2022-12-20T01:58:32;100940.56;;;6.58;85.82
75585;BME280;64162;53.508;10.476;2022-12-20T02:01:00;100945.16;;;6.69;85.76
75585;BME280;64162;53.508;10.476;2022-12-20T02:03:28;100932.72;;;6.72;85.29
75585;BME280;64162;53.508;10.476;2022-12-20T02:05:56;100917.78;;;6.88;85.29
75585;BME280;64162;53.508;10.476;2022-12-20T02:08:23;100919.28;;;6.92;85.11
75585;BME280;64162;53.508;10.476;2022-12-20T02:14:34;100916.09;;;7.02;84.59
75585;BME280;64162;53.508;10.476;2022-12-20T02:16:42;100927.97;;;7.07;84.83
75585;BME280;64162;53.508;10.476;2022-12-20T02:19:32;100934.59;;;7.13;84.53
75585;BME280;64162;53.508;10.476;2022-12-20T02:22:13;100931.63;;;7.19;84.38
75585;BME280;64162;53.508;10.476;2022-12-20T02:27:53;100926.38;;;7.33;84.06
75585;BME280;64162;53.508;10.476;2022-12-20T02:30:33;100923.66;;;7.35;83.73
75585;BME280;64162;53.508;10.476;2022-12-20T02:33:06;100917.28;;;7.39;83.78
75585;BME280;64162;53.508;10.476;2022-12-20T02:35:36;100906.78;;;7.39;83.55
75585;BME280;64162;53.508;10.476;2022-12-20T02:38:28;100909.22;;;7.42;83.72
75585;BME280;64162;53.508;10.476;2022-12-20T02:41:01;100904.81;;;7.42;84.06
75585;BME280;64162;53.508;10.476;2022-12-20T02:43:29;100906.69;;;7.40;83.64
75585;BME280;64162;53.508;10.476;2022-12-20T02:46:18;100908.94;;;7.46;83.19
75585;BME280;64162;53.508;10.476;2022-12-20T02:48:47;100914.19;;;7.46;83.61
75585;BME280;64162;53.508;10.476;2022-12-20T02:51:16;100914.41;;;7.56;83.08
75585;BME280;64162;53.508;10.476;2022-12-20T02:53:43;100908.13;;;7.58;83.31
75585;BME280;64162;53.508;10.476;2022-12-20T02:56:17;100908.88;;;7.60;83.33
75585;BME280;64162;53.508;10.476;2022-12-20T02:58:55;100900.16;;;7.60;83.45
75585;BME280;64162;53.508;10.476;2022-12-20T03:01:30;100904.84;;;7.69;82.91
75585;BME280;64162;53.508;10.476;2022-12-20T03:03:59;100889.41;;;7.65;83.16
75585;BME280;64162;53.508;10.476;2022-12-20T03:06:26;100889.94;;;7.70;82.77
75585;BME280;64162;53.508;10.476;2022-12-20T03:08:56;100887.22;;;7.71;82.99
75585;BME280;64162;53.508;10.476;2022-12-20T03:11:26;100881.22;;;7.69;82.84
75585;BME280;64162;53.508;10.476;2022-12-20T03:13:53;100887.66;;;7.78;82.81
75585;BME280;64162;53.508;10.476;2022-12-20T03:16:55;100888.72;;;7.75;82.72
75585;BME280;64162;53.508;10.476;2022-12-20T03:19:22;100897.97;;;7.81;82.59
75585;BME280;64162;53.508;10.476;2022-12-20T03:21:49;100891.78;;;7.82;82.96
75585;BME280;64162;53.508;10.476;2022-12-20T03:24:16;100899.53;;;7.83;82.53
75585;BME280;64162;53.508;10.476;2022-12-20T03:26:43;100895.78;;;7.87;82.27
75585;BME280;64162;53.508;10.476;2022-12-20T03:29:10;100903.56;;;7.89;82.33
75585;BME280;64162;53.508;10.476;2022-12-20T03:31:37;100900.63;;;7.93;82.00
75585;BME280;64162;53.508;10.476;2022-12-20T03:34:05;100899.06;;;7.91;82.41
75585;BME280;64162;53.508;10.476;2022-12-20T03:36:33;100904.84;;;7.96;81.64
75585;BME280;64162;53.508;10.476;2022-12-20T03:39:02;100903.59;;;8.02;82.34
75585;BME280;64162;53.508;10.476;2022-12-20T03:41:33;100900.25;;;8.00;81.68
75585;BME280;64162;53.508;10.476;2022-12-20T03:44:00;100903.59;;;8.02;81.92
75585;BME280;64162;53.508;10.476;2022-12-20T03:46:27;100897.31;;;8.04;81.73
75585;BME280;64162;53.508;10.476;2022-12-20T03:48:54;100887.97;;;8.00;81.84
75585;BME280;64162;53.508;10.476;2022-12-20T03:51:22;100899.84;;;8.06;81.71
75585;BME280;64162;53.508;10.476;2022-12-20T03:53:48;100897.81;;;8.09;82.09
75585;BME280;64162;53.508;10.476;2022-12-20T03:56:16;100905.59;;;8.11;81.76
75585;BME280;64162;53.508;10.476;2022-12-20T03:58:43;100912.84;;;8.07;81.35
75585;BME280;64162;53.508;10.476;2022-12-20T04:01:18;100897.13;;;8.07;82.24
75585;BME280;64162;53.508;10.476;2022-12-20T04:03:45;100893.22;;;8.13;81.46
75585;BME280;64162;53.508;10.476;2022-12-20T04:06:12;100895.94;;;8.11;81.41
75585;BME280;64162;53.508;10.476;2022-12-20T04:08:38;100896.59;;;8.15;81.15
75585;BME280;64162;53.508;10.476;2022-12-20T04:11:05;100889.44;;;8.17;81.35
75585;BME280;64162;53.508;10.476;2022-12-20T04:14:01;100899.84;;;8.18;80.97
75585;BME280;64162;53.508;10.476;2022-12-20T04:16:29;100902.28;;;8.21;81.22
75585;BME280;64162;53.508;10.476;2022-12-20T04:18:56;100898.38;;;8.14;81.43
75585;BME280;64162;53.508;10.476;2022-12-20T04:21:27;100892.19;;;8.15;80.95
75585;BME280;64162;53.508;10.476;2022-12-20T04:23:57;100889.34;;;8.18;81.20
75585;BME280;64162;53.508;10.476;2022-12-20T04:26:30;100886.94;;;8.15;80.92
75585;BME280;64162;53.508;10.476;2022-12-20T04:28:58;100892.06;;;8.17;81.30
75585;BME280;64162;53.508;10.476;2022-12-20T04:31:25;100890.59;;;8.13;80.73
75585;BME280;64162;53.508;10.476;2022-12-20T04:33:52;100867.91;;;8.12;80.62
75585;BME280;64162;53.508;10.476;2022-12-20T04:36:20;100871.59;;;8.09;81.26
75585;BME280;64162;53.508;10.476;2022-12-20T04:38:49;100877.06;;;8.06;80.54
75585;BME280;64162;53.508;10.476;2022-12-20T04:41:16;100871.91;;;8.05;80.58
75585;BME280;64162;53.508;10.476;2022-12-20T04:43:57;100870.34;;;8.02;80.95
75585;BME280;64162;53.508;10.476;2022-12-20T04:46:32;100878.50;;;7.98;80.98
75585;BME280;64162;53.508;10.476;2022-12-20T04:48:59;100865.59;;;7.94;81.24
75585;BME280;64162;53.508;10.476;2022-12-20T04:51:29;100857.91;;;7.91;81.34
75585;BME280;64162;53.508;10.476;2022-12-20T04:53:56;100867.69;;;7.89;81.08
75585;BME280;64162;53.508;10.476;2022-12-20T04:56:45;100872.38;;;7.84;81.02
75585;BME280;64162;53.508;10.476;2022-12-20T04:59:21;100867.44;;;7.80;81.49
75585;BME280;64162;53.508;10.476;2022-12-20T05:01:51;100870.91;;;7.80;81.52
75585;BME280;64162;53.508;10.476;2022-12-20T05:04:37;100865.94;;;7.76;81.56
75585;BME280;64162;53.508;10.476;2022-12-20T05:07:04;100856.28;;;7.76;81.68
75585;BME280;64162;53.508;10.476;2022-12-20T05:09:32;100862.28;;;7.78;81.67
75585;BME280;64162;53.508;10.476;2022-12-20T05:11:59;100863.03;;;7.80;81.84
75585;BME280;64162;53.508;10.476;2022-12-20T05:14:25;100866.38;;;7.82;81.94
75585;BME280;64162;53.508;10.476;2022-12-20T05:16:52;100867.22;;;7.83;82.18
75585;BME280;64162;53.508;10.476;2022-12-20T05:19:19;100878.88;;;7.79;82.81
75585;BME280;64162;53.508;10.476;2022-12-20T05:21:45;100865.44;;;7.83;83.28
75585;BME280;64162;53.508;10.476;2022-12-20T05:24:33;100865.44;;;7.83;83.34
75585;BME280;64162;53.508;10.476;2022-12-20T05:27:26;100864.50;;;7.84;83.64
75585;BME280;64162;53.508;10.476;2022-12-20T05:29:53;100869.00;;;7.82;83.97
75585;BME280;64162;53.508;10.476;2022-12-20T05:32:20;100872.38;;;7.84;83.72
75585;BME280;64162;53.508;10.476;2022-12-20T05:34:47;100863.47;;;7.87;83.88
75585;BME280;64162;53.508;10.476;2022-12-20T05:37:15;100864.31;;;7.87;83.63
75585;BME280;64162;53.508;10.476;2022-12-20T05:39:42;100865.16;;;7.88;83.97
75585;BME280;64162;53.508;10.476;2022-12-20T05:42:16;100869.00;;;7.82;84.26
75585;BME280;64162;53.508;10.476;2022-12-20T05:44:43;100864.31;;;7.87;84.00
75585;BME280;64162;53.508;10.476;2022-12-20T05:47:10;100852.88;;;7.88;84.33
75585;BME280;64162;53.508;10.476;2022-12-20T05:49:40;100861.69;;;7.87;84.49
75585;BME280;64162;53.508;10.476;2022-12-20T05:52:09;100859.16;;;7.86;84.28
75585;BME280;64162;53.508;10.476;2022-12-20T05:54:38;100859.06;;;7.87;84.29
75585;BME280;64162;53.508;10.476;2022-12-20T05:57:09;100847.00;;;7.85;84.02
75585;BME280;64162;53.508;10.476;2022-12-20T05:59:38;100853.06;;;7.85;84.41
75585;BME280;64162;53.508;10.476;2022-12-20T06:02:12;100863.56;;;7.85;84.13
75585;BME280;64162;53.508;10.476;2022-12-20T06:04:40;100864.13;;;7.90;84.45
75585;BME280;64162;53.508;10.476;2022-12-20T06:07:14;100867.69;;;7.89;84.26
75585;BME280;64162;53.508;10.476;2022-12-20T06:09:44;100860.44;;;7.93;84.14
75585;BME280;64162;53.508;10.476;2022-12-20T06:12:14;100870.41;;;7.88;84.41
75585;BME280;64162;53.508;10.476;2022-12-20T06:14:41;100876.28;;;7.91;84.20
75585;BME280;64162;53.508;10.476;2022-12-20T06:17:10;100863.38;;;7.88;84.63
75585;BME280;64162;53.508;10.476;2022-12-20T06:19:37;100859.16;;;7.86;84.25
75585;BME280;64162;53.508;10.476;2022-12-20T06:22:08;100863.56;;;7.85;84.65
75585;BME280;64162;53.508;10.476;2022-12-20T06:24:41;100871.03;;;7.91;84.42
75585;BME280;64162;53.508;10.476;2022-12-20T06:27:12;100872.28;;;7.86;84.91
75585;BME280;64162;53.508;10.476;2022-12-20T06:29:39;100866.53;;;7.93;84.88
75585;BME280;64162;53.508;10.476;2022-12-20T06:32:09;100874.41;;;7.93;85.28
75585;BME280;64162;53.508;10.476;2022-12-20T06:34:36;100872.63;;;7.94;85.20
75585;BME280;64162;53.508;10.476;2022-12-20T06:37:03;100883.13;;;7.94;85.28
75585;BME280;64162;53.508;10.476;2022-12-20T06:39:32;100882.91;;;7.97;85.37
75585;BME280;64162;53.508;10.476;2022-12-20T06:42:03;100873.47;;;7.94;85.89
75585;BME280;64162;53.508;10.476;2022-12-20T06:44:31;100873.06;;;8.01;85.61
75585;BME280;64162;53.508;10.476;2022-12-20T06:46:58;100871.28;;;8.01;85.82
75585;BME280;64162;53.508;10.476;2022-12-20T06:49:25;100859.09;;;8.00;85.54
75585;BME280;64162;53.508;10.476;2022-12-20T06:51:52;100859.09;;;8.00;85.67
75585;BME280;64162;53.508;10.476;2022-12-20T06:54:24;100858.81;;;8.05;85.52
75585;BME280;64162;53.508;10.476;2022-12-20T06:56:51;100857.75;;;8.07;85.68
75585;BME280;64162;53.508;10.476;2022-12-20T06:59:18;100856.28;;;8.03;86.04
75585;BME280;64162;53.508;10.476;2022-12-20T07:01:45;100859.53;;;8.07;85.83
75585;BME280;64162;53.508;10.476;2022-12-20T07:04:11;100861.94;;;8.10;85.65
75585;BME280;64162;53.508;10.476;2022-12-20T07:06:38;100852.38;;;8.09;85.94
75585;BME280;64162;53.508;10.476;2022-12-20T07:09:05;100845.34;;;8.09;86.04
75585;BME280;64162;53.508;10.476;2022-12-20T07:11:31;100847.88;;;8.11;86.17
75585;BME280;64162;53.508;10.476;2022-12-20T07:13:58;100848.81;;;8.10;86.39
75585;BME280;64162;53.508;10.476;2022-12-20T07:16:25;100852.91;;;8.14;85.88
75585;BME280;64162;53.508;10.476;2022-12-20T07:18:52;100843.06;;;8.05;86.26
75585;BME280;64162;53.508;10.476;2022-12-20T07:21:20;100825.00;;;8.13;85.72
75585;BME280;64162;53.508;10.476;2022-12-20T07:23:47;100846.63;;;8.16;85.73
75585;BME280;64162;53.508;10.476;2022-12-20T07:26:14;100838.09;;;8.13;85.37
75585;BME280;64162;53.508;10.476;2022-12-20T07:28:41;100840.63;;;8.14;85.72
75585;BME280;64162;53.508;10.476;2022-12-20T07:31:08;100850.94;;;8.17;85.83
75585;BME280;64162;53.508;10.476;2022-12-20T07:33:35;100848.84;;;8.22;85.46
75585;BME280;64162;53.508;10.476;2022-12-20T07:36:05;100858.50;;;8.22;85.48
75585;BME280;64162;53.508;10.476;2022-12-20T07:38:33;100862.16;;;8.19;85.57
75585;BME280;64162;53.508;10.476;2022-12-20T07:41:06;100862.59;;;8.26;85.56
75585;BME280;64162;53.508;10.476;2022-12-20T07:43:33;100860.91;;;8.25;85.80
75585;BME280;64162;53.508;10.476;2022-12-20T07:46:01;100850.09;;;8.29;85.63
75585;BME280;64162;53.508;10.476;2022-12-20T07:48:28;100842.78;;;8.35;85.47
75585;BME280;64162;53.508;10.476;2022-12-20T07:51:02;100848.56;;;8.40;85.38
75585;BME280;64162;53.508;10.476;2022-12-20T07:53:33;100838.81;;;8.42;85.31
75585;BME280;64162;53.508;10.476;2022-12-20T07:56:02;100845.00;;;8.41;85.47
75585;BME280;64162;53.508;10.476;2022-12-20T07:58:32;100843.53;;;8.37;85.01
75585;BME280;64162;53.508;10.476;2022-12-20T08:01:01;100841.53;;;8.40;85.34
75585;BME280;64162;53.508;10.476;2022-12-20T08:03:34;100847.22;;;8.47;85.27
75585;BME280;64162;53.508;10.476;2022-12-20T08:06:04;100850.78;;;8.46;85.46
75585;BME280;64162;53.508;10.476;2022-12-20T08:08:35;100850.16;;;8.42;84.89
75585;BME280;64162;53.508;10.476;2022-12-20T08:11:06;100853.31;;;8.47;85.04
75585;BME280;64162;53.508;10.476;2022-12-20T08:13:34;100842.50;;;8.52;84.88
75585;BME280;64162;53.508;10.476;2022-12-20T08:16:03;100835.66;;;8.49;84.98
75585;BME280;64162;53.508;10.476;2022-12-20T08:18:30;100837.34;;;8.50;84.98
75585;BME280;64162;53.508;10.476;2022-12-20T08:20:57;100830.22;;;8.52;84.69
75585;BME280;64162;53.508;10.476;2022-12-20T08:23:24;100833.88;;;8.50;84.65
75585;BME280;64162;53.508;10.476;2022-12-20T08:25:51;100830.41;;;8.49;84.90
75585;BME280;64162;53.508;10.476;2022-12-20T08:28:18;100828.31;;;8.54;84.51
75585;BME280;64162;53.508;10.476;2022-12-20T08:30:45;100818.44;;;8.58;84.40
75585;BME280;64162;53.508;10.476;2022-12-20T08:33:12;100827.69;;;8.64;84.55
75585;BME280;64162;53.508;10.476;2022-12-20T08:35:38;100808.84;;;8.70;84.40
75585;BME280;64162;53.508;10.476;2022-12-20T08:38:05;100810.41;;;8.72;84.54
75585;BME280;64162;53.508;10.476;2022-12-20T08:40:33;100807.56;;;8.75;83.95
75585;BME280;64162;53.508;10.476;2022-12-20T08:43:00;100807.03;;;8.83;83.84
75585;BME280;64162;53.508;10.476;2022-12-20T08:45:30;100816.16;;;8.90;83.33
75585;BME280;64162;53.508;10.476;2022-12-20T08:47:57;100806.28;;;8.93;83.56
75585;BME280;64162;53.508;10.476;2022-12-20T08:50:24;100808.81;;;8.95;83.65
75585;BME280;64162;53.508;10.476;2022-12-20T08:52:52;100799.25;;;8.94;83.36
75585;BME280;64162;53.508;10.476;2022-12-20T08:55:19;100796.19;;;9.00;83.34
75585;BME280;64162;53.508;10.476;2022-12-20T08:57:48;100797.66;;;9.04;83.30
75585;BME280;64162;53.508;10.476;2022-12-20T09:00:15;100810.66;;;9.18;82.77
75585;BME280;64162;53.508;10.476;2022-12-20T09:02:42;100808.38;;;9.25;82.84
75585;BME280;64162;53.508;10.476;2022-12-20T09:05:09;100812.25;;;9.32;82.66
75585;BME280;64162;53.508;10.476;2022-12-20T09:07:36;100810.47;;;9.33;82.37
75585;BME280;64162;53.508;10.476;2022-12-20T09:10:03;100807.84;;;9.33;82.54
75585;BME280;64162;53.508;10.476;2022-12-20T09:12:29;100813.31;;;9.30;82.29
75585;BME280;64162;53.508;10.476;2022-12-20T09:14:56;100802.91;;;9.28;82.12
75585;BME280;64162;53.508;10.476;2022-12-20T09:17:23;100803.41;;;9.33;82.20
75585;BME280;64162;53.508;10.476;2022-12-20T09:19:50;100808.22;;;9.39;81.96
75585;BME280;64162;53.508;10.476;2022-12-20T09:22:17;100794.53;;;9.47;82.08
75585;BME280;64162;53.508;10.476;2022-12-20T09:24:43;100793.84;;;9.56;81.95
75585;BME280;64162;53.508;10.476;2022-12-20T09:27:10;100794.88;;;9.66;81.58
75585;BME280;64162;53.508;10.476;2022-12-20T09:29:37;100803.25;;;9.71;81.51
75585;BME280;64162;53.508;10.476;2022-12-20T09:32:05;100795.03;;;9.76;81.47
75585;BME280;64162;53.508;10.476;2022-12-20T09:34:32;100798.16;;;9.81;80.97
75585;BME280;64162;53.508;10.476;2022-12-20T09:36:59;100807.25;;;9.88;80.92
75585;BME280;64162;53.508;10.476;2022-12-20T09:39:25;100806.66;;;9.96;81.01
75585;BME280;64162;53.508;10.476;2022-12-20T09:41:52;100794.13;;;9.99;80.38
75585;BME280;64162;53.508;10.476;2022-12-20T09:44:30;100802.63;;;10.03;80.03
75585;BME280;64162;53.508;10.476;2022-12-20T09:47:04;100800.97;;;10.13;79.76
75585;BME280;64162;53.508;10.476;2022-12-20T09:49:38;100799.06;;;10.15;79.89
75585;BME280;64162;53.508;10.476;2022-12-20T10:01:23;100785.59;;;10.19;79.34
75585;BME280;64162;53.508;10.476;2022-12-20T10:03:52;100781.88;;;10.22;79.98
75585;BME280;64162;53.508;10.476;2022-12-20T10:12:23;100780.81;;;10.24;78.69
75585;BME280;64162;53.508;10.476;2022-12-20T10:25:58;100763.22;;;10.58;78.62
75585;BME280;64162;53.508;10.476;2022-12-20T10:28:30;100760.56;;;10.58;78.88
75585;BME280;64162;53.508;10.476;2022-12-20T10:31:02;100759.38;;;10.74;78.70
75585;BME280;64162;53.508;10.476;2022-12-20T10:33:32;100766.44;;;10.84;78.17
75585;BME280;64162;53.508;10.476;2022-12-20T10:38:55;100750.84;;;10.93;77.60
75585;BME280;64162;53.508;10.476;2022-12-20T10:41:25;100749.78;;;10.95;77.66
75585;BME280;64162;53.508;10.476;2022-12-20T10:44:15;100743.53;;;10.96;76.69
75585;BME280;64162;53.508;10.476;2022-12-20T10:46:47;100730.78;;;11.01;77.23
75585;BME280;64162;53.508;10.476;2022-12-20T10:49:28;100723.44;;;11.16;77.07
75585;BME280;64162;53.508;10.476;2022-12-20T10:52:16;100717.81;;;11.20;77.13
75585;BME280;64162;53.508;10.476;2022-12-20T10:54:45;100722.22;;;11.20;77.02
75585;BME280;64162;53.508;10.476;2022-12-20T10:59:56;100721.91;;;11.13;77.63
75585;BME280;64162;53.508;10.476;2022-12-20T11:02:30;100724.41;;;11.15;76.04
75585;BME280;64162;53.508;10.476;2022-12-20T11:05:18;100735.06;;;11.24;75.62
75585;BME280;64162;53.508;10.476;2022-12-20T11:07:54;100733.84;;;11.29;75.45
75585;BME280;64162;53.508;10.476;2022-12-20T11:10:43;100722.19;;;11.31;75.52
75585;BME280;64162;53.508;10.476;2022-12-20T11:13:25;100719.56;;;11.31;76.00
75585;BME280;64162;53.508;10.476;2022-12-20T11:15:54;100703.72;;;11.31;75.80
75585;BME280;64162;53.508;10.476;2022-12-20T11:18:37;100703.59;;;11.33;75.71
75585;BME280;64162;53.508;10.476;2022-12-20T11:21:20;100695.56;;;11.34;75.44
75585;BME280;64162;53.508;10.476;2022-12-20T11:35:10;100673.59;;;11.45;75.23
75585;BME280;64162;53.508;10.476;2022-12-20T11:43:43;100673.78;;;11.53;74.65
75585;BME280;64162;53.508;10.476;2022-12-20T11:52:39;100654.13;;;11.67;74.08
75585;BME280;64162;53.508;10.476;2022-12-20T11:55:19;100643.88;;;11.73;73.91
75585;BME280;64162;53.508;10.476;2022-12-20T12:01:02;100661.47;;;11.63;74.18
75585;BME280;64162;53.508;10.476;2022-12-20T12:03:37;100655.66;;;11.69;73.87
75585;BME280;64162;53.508;10.476;2022-12-20T12:06:19;100650.38;;;11.69;73.71
75585;BME280;64162;53.508;10.476;2022-12-20T12:08:57;100644.41;;;11.67;73.39
75585;BME280;64162;53.508;10.476;2022-12-20T12:11:32;100645.03;;;11.59;73.19
75585;BME280;64162;53.508;10.476;2022-12-20T12:17:23;100645.03;;;11.59;74.46
75585;BME280;64162;53.508;10.476;2022-12-20T12:19:54;100636.13;;;11.51;73.39
75585;BME280;64162;53.508;10.476;2022-12-20T12:22:28;100635.94;;;11.43;73.85
75585;BME280;64162;53.508;10.476;2022-12-20T12:25:02;100638.97;;;11.38;73.91
75585;BME280;64162;53.508;10.476;2022-12-20T12:27:31;100647.25;;;11.34;74.12
75585;BME280;64162;53.508;10.476;2022-12-20T12:29:58;100660.69;;;11.31;74.87
75585;BME280;64162;53.508;10.476;2022-12-20T12:32:33;100645.00;;;11.29;75.24
75585;BME280;64162;53.508;10.476;2022-12-20T12:38:01;100646.72;;;11.19;75.88
75585;BME280;64162;53.508;10.476;2022-12-20T12:40:43;100636.69;;;11.13;74.87
75585;BME280;64162;53.508;10.476;2022-12-20T12:46:12;100634.28;;;11.10;75.50
75585;BME280;64162;53.508;10.476;2022-12-20T12:49:05;100625.91;;;11.05;75.87
75585;BME280;64162;53.508;10.476;2022-12-20T12:51:40;100632.28;;;11.02;75.90
75585;BME280;64162;53.508;10.476;2022-12-20T12:56:58;100624.91;;;10.96;76.90
75585;BME280;64162;53.508;10.476;2022-12-20T13:13:13;100592.59;;;10.83;76.19
75585;BME280;64162;53.508;10.476;2022-12-20T13:15:52;100595.38;;;10.81;76.85
75585;BME280;64162;53.508;10.476;2022-12-20T13:19:10;100587.91;;;10.86;76.24
75585;BME280;64162;53.508;10.476;2022-12-20T13:22:12;100591.59;;;10.95;76.32
75585;BME280;64162;53.508;10.476;2022-12-20T13:25:47;100576.34;;;10.99;76.55
75585;BME280;64162;53.508;10.476;2022-12-20T13:28:45;100568.59;;;10.97;77.27
75585;BME280;64162;53.508;10.476;2022-12-20T13:37:54;100570.75;;;10.92;76.55
75585;BME280;64162;53.508;10.476;2022-12-20T13:40:50;100576.41;;;10.87;75.96
75585;BME280;64162;53.508;10.476;2022-12-20T13:43:59;100568.75;;;10.84;75.87
75585;BME280;64162;53.508;10.476;2022-12-20T13:47:00;100572.50;;;10.82;76.45
75585;BME280;64162;53.508;10.476;2022-12-20T13:49:49;100572.75;;;10.79;76.94
75585;BME280;64162;53.508;10.476;2022-12-20T13:52:40;100576.84;;;10.72;76.48
75585;BME280;64162;53.508;10.476;2022-12-20T13:55:44;100590.63;;;10.64;76.59
75585;BME280;64162;53.508;10.476;2022-12-20T13:58:31;100591.00;;;10.59;78.00
75585;BME280;64162;53.508;10.476;2022-12-20T14:01:22;100590.53;;;10.54;77.80
75585;BME280;64162;53.508;10.476;2022-12-20T14:04:10;100585.06;;;10.46;78.10
75585;BME280;64162;53.508;10.476;2022-12-20T14:07:14;100589.72;;;10.43;78.45
75585;BME280;64162;53.508;10.476;2022-12-20T14:10:47;100583.91;;;10.39;78.98
75585;BME280;64162;53.508;10.476;2022-12-20T14:14:49;100590.50;;;10.34;79.62
75585;BME280;64162;53.508;10.476;2022-12-20T14:23:09;100590.63;;;10.21;79.54
75585;BME280;64162;53.508;10.476;2022-12-20T14:26:39;100585.25;;;10.22;79.74
75585;BME280;64162;53.508;10.476;2022-12-20T14:30:27;100587.50;;;10.16;79.96
75585;BME280;64162;53.508;10.476;2022-12-20T14:37:40;100576.59;;;10.09;81.88
75585;BME280;64162;53.508;10.476;2022-12-20T14:41:42;100564.88;;;10.02;82.32
75585;BME280;64162;53.508;10.476;2022-12-20T14:45:36;100558.19;;;9.98;82.54
75585;BME280;64162;53.508;10.476;2022-12-20T14:53:00;100547.78;;;9.85;82.98
75585;BME280;64162;53.508;10.476;2022-12-20T15:07:28;100551.88;;;9.78;83.88
75585;BME280;64162;53.508;10.476;2022-12-20T15:09:55;100549.50;;;9.75;83.93
75585;BME280;64162;53.508;10.476;2022-12-20T15:12:22;100546.88;;;9.75;83.93
75585;BME280;64162;53.508;10.476;2022-12-20T15:14:48;100546.88;;;9.75;83.66
75585;BME280;64162;53.508;10.476;2022-12-20T15:17:15;100544.00;;;9.78;83.58
75585;BME280;64162;53.508;10.476;2022-12-20T15:19:42;100547.59;;;9.77;84.25
75585;BME280;64162;53.508;10.476;2022-12-20T15:22:13;100550.34;;;9.76;84.30
75585;BME280;64162;53.508;10.476;2022-12-20T15:24:40;100555.22;;;9.69;84.00
75585;BME280;64162;53.508;10.476;2022-12-20T15:27:12;100558.47;;;9.62;84.20